createdAt,value
2022-10-23T00:00:34.376Z,57.89
2022-10-23T00:01:34.297Z,58.80
2022-10-23T00:02:34.445Z,57.38
2022-10-23T00:03:34.593Z,58.50
2022-10-23T00:04:34.374Z,61.64
2022-10-23T00:05:34.245Z,62.33
2022-10-23T00:06:34.315Z,58.90
2022-10-23T00:07:34.189Z,57.17
2022-10-23T00:08:34.824Z,61.89
2022-10-23T00:09:34.126Z,57.05
2022-10-23T00:10:34.180Z,61.10
2022-10-23T00:11:34.363Z,53.08
2022-10-23T00:12:35.185Z,66.53
2022-10-23T00:13:34.432Z,62.69
2022-10-23T00:14:34.317Z,61.85
2022-10-23T00:15:34.226Z,50.66
2022-10-23T00:17:11.573Z,62.12
2022-10-23T00:17:33.838Z,66.41
2022-10-23T00:18:34.564Z,66.83
2022-10-23T00:19:34.106Z,63.06
2022-10-23T00:20:34.093Z,61.83
2022-10-23T00:21:34.906Z,63.14
2022-10-23T00:22:33.962Z,52.92
2022-10-23T00:23:34.018Z,51.55
2022-10-23T00:24:33.960Z,56.62
2022-10-23T00:25:33.894Z,60.98
2022-10-23T00:26:33.907Z,65.25
2022-10-23T00:27:33.971Z,61.20
2022-10-23T00:28:33.874Z,57.97
2022-10-23T00:29:33.784Z,60.59
2022-10-23T00:30:33.771Z,59.65
2022-10-23T00:31:34.099Z,52.62
2022-10-23T00:32:33.847Z,57.99
2022-10-23T00:33:33.971Z,65.04
2022-10-23T00:34:34.048Z,67.28
2022-10-23T00:35:33.756Z,63.90
2022-10-23T00:36:33.735Z,63.52
2022-10-23T00:37:34.782Z,60.83
2022-10-23T00:38:33.830Z,58.03
2022-10-23T00:39:34.770Z,59.12
2022-10-23T00:40:33.883Z,54.69
2022-10-23T00:41:34.932Z,59.06
2022-10-23T00:42:33.578Z,57.38
2022-10-23T00:43:33.937Z,64.00
2022-10-23T00:44:34.020Z,65.12
2022-10-23T00:45:33.636Z,61.02
2022-10-23T00:46:33.992Z,66.50
2022-10-23T00:47:33.946Z,59.23
2022-10-23T00:48:33.751Z,61.40
2022-10-23T00:49:34.624Z,52.21
2022-10-23T00:50:33.735Z,63.93
2022-10-23T00:51:33.495Z,56.00
2022-10-23T00:52:33.780Z,50.33
2022-10-23T00:53:33.824Z,61.72
2022-10-23T00:54:33.483Z,59.71
2022-10-23T00:55:33.727Z,59.81
2022-10-23T00:56:33.803Z,58.91
2022-10-23T00:57:44.817Z,53.08
2022-10-23T00:58:33.657Z,57.15
2022-10-23T00:59:34.195Z,59.07
2022-10-23T01:00:33.822Z,66.77
2022-10-23T01:01:33.716Z,53.49
2022-10-23T01:02:33.443Z,57.34
2022-10-23T01:03:33.260Z,58.21
2022-10-23T01:04:33.285Z,45.71
2022-10-23T01:05:33.320Z,52.56
2022-10-23T01:06:33.224Z,63.24
2022-10-23T01:07:33.216Z,61.59
2022-10-23T01:08:33.264Z,58.69
2022-10-23T01:09:33.222Z,65.19
2022-10-23T01:10:33.224Z,59.88
2022-10-23T01:11:33.180Z,56.51
2022-10-23T01:12:33.191Z,60.04
2022-10-23T01:13:33.212Z,58.80
2022-10-23T01:14:33.181Z,51.12
2022-10-23T01:15:33.151Z,60.51
2022-10-23T01:16:33.177Z,52.86
2022-10-23T01:17:33.169Z,68.52
2022-10-23T01:18:33.842Z,61.43
2022-10-23T01:19:33.158Z,48.82
2022-10-23T01:20:33.127Z,58.12
2022-10-23T01:21:33.077Z,55.74
2022-10-23T01:22:33.075Z,65.72
2022-10-23T01:23:33.105Z,61.80
2022-10-23T01:24:33.074Z,46.76
2022-10-23T01:25:33.052Z,65.22
2022-10-23T01:26:33.101Z,58.60
2022-10-23T01:27:33.025Z,65.78
2022-10-23T01:28:33.033Z,66.58
2022-10-23T01:29:33.041Z,56.30
2022-10-23T01:30:33.046Z,55.48
2022-10-23T01:31:32.984Z,65.95
2022-10-23T01:32:32.998Z,57.08
2022-10-23T01:33:32.966Z,56.36
2022-10-23T01:34:32.972Z,61.89
2022-10-23T01:35:32.990Z,67.25
2022-10-23T01:36:32.936Z,68.14
2022-10-23T01:37:32.901Z,62.06
2022-10-23T01:38:32.937Z,60.53
2022-10-23T01:39:32.983Z,55.60
2022-10-23T01:40:32.947Z,59.55
2022-10-23T01:41:32.958Z,58.93
2022-10-23T01:42:32.962Z,61.62
2022-10-23T01:43:33.094Z,63.64
2022-10-23T01:44:32.937Z,59.98
2022-10-23T01:45:33.022Z,63.95
2022-10-23T01:46:32.899Z,55.36
2022-10-23T01:47:32.964Z,45.79
2022-10-23T01:48:33.023Z,58.10
2022-10-23T01:49:33.035Z,54.55
2022-10-23T01:50:32.883Z,55.58
2022-10-23T01:51:32.888Z,66.34
2022-10-23T01:52:32.897Z,65.74
2022-10-23T01:53:32.921Z,47.22
2022-10-23T01:54:32.937Z,56.84
2022-10-23T01:55:32.854Z,47.35
2022-10-23T01:56:33.026Z,65.18
2022-10-23T01:57:32.881Z,60.56
2022-10-23T01:58:33.082Z,60.60
2022-10-23T01:59:32.855Z,63.98
2022-10-23T02:00:32.771Z,62.41
2022-10-23T02:01:32.919Z,62.76
2022-10-23T02:02:33.838Z,53.01
2022-10-23T02:03:32.751Z,45.89
2022-10-23T02:04:32.832Z,58.10
2022-10-23T02:05:33.011Z,56.53
2022-10-23T02:06:32.737Z,59.00
2022-10-23T02:07:32.727Z,49.50
2022-10-23T02:08:32.735Z,64.96
2022-10-23T02:09:32.666Z,56.36
2022-10-23T02:10:32.691Z,54.60
2022-10-23T02:11:32.683Z,60.28
2022-10-23T02:12:32.730Z,53.78
2022-10-23T02:13:32.727Z,57.11
2022-10-23T02:14:32.868Z,51.88
2022-10-23T02:15:32.655Z,60.47
2022-10-23T02:16:32.792Z,56.01
2022-10-23T02:17:32.648Z,61.93
2022-10-23T02:18:32.661Z,59.45
2022-10-23T02:19:32.700Z,53.10
2022-10-23T02:20:32.699Z,56.15
2022-10-23T02:21:32.634Z,60.22
2022-10-23T02:22:32.639Z,49.33
2022-10-23T02:23:32.676Z,57.03
2022-10-23T02:24:32.520Z,51.16
2022-10-23T02:25:32.608Z,53.47
2022-10-23T02:26:32.636Z,61.60
2022-10-23T02:27:32.532Z,58.06
2022-10-23T02:28:32.600Z,56.79
2022-10-23T02:29:32.548Z,58.11
2022-10-23T02:30:32.512Z,58.86
2022-10-23T02:31:32.464Z,65.00
2022-10-23T02:32:32.519Z,52.21
2022-10-23T02:33:32.908Z,59.23
2022-10-23T02:34:32.532Z,59.68
2022-10-23T02:35:32.584Z,64.01
2022-10-23T02:36:32.560Z,60.99
2022-10-23T02:37:32.549Z,57.23
2022-10-23T02:38:32.566Z,53.18
2022-10-23T02:39:32.533Z,61.39
2022-10-23T02:40:32.409Z,53.15
2022-10-23T02:41:32.447Z,49.90
2022-10-23T02:42:32.570Z,54.38
2022-10-23T02:43:32.480Z,62.56
2022-10-23T02:44:32.410Z,49.96
2022-10-23T02:45:32.466Z,58.41
2022-10-23T02:46:32.468Z,60.16
2022-10-23T02:47:32.458Z,62.02
2022-10-23T02:48:32.709Z,60.52
2022-10-23T02:52:24.676Z,0.00
2022-10-23T02:53:23.937Z,53.96
2022-10-23T02:54:23.793Z,62.48
2022-10-23T02:55:23.486Z,60.35
2022-10-23T02:56:24.118Z,49.51
2022-10-23T02:57:24.861Z,61.04
2022-10-23T02:59:44.229Z,56.67
2022-10-23T03:01:15.504Z,0.00
2022-10-23T03:02:26.703Z,0.00
2022-10-23T03:02:34.017Z,0.00
2022-10-23T03:05:45.545Z,0.00
2022-10-23T03:05:50.346Z,0.00
2022-10-23T03:08:08.674Z,58.86
2022-10-23T03:08:11.172Z,0.00
2022-10-23T03:10:30.522Z,49.04
2022-10-23T03:10:33.936Z,0.00
2022-10-23T03:11:33.251Z,63.78
2022-10-23T03:14:33.656Z,51.46
2022-10-23T03:17:54.794Z,0.00
2022-10-23T03:18:05.238Z,0.00
2022-10-23T03:19:05.097Z,53.03
2022-10-23T03:21:26.187Z,60.01
2022-10-23T03:21:29.767Z,0.00
2022-10-23T03:25:34.646Z,0.00
2022-10-23T03:26:02.023Z,50.01
2022-10-23T03:27:02.200Z,65.29
2022-10-23T03:28:02.023Z,59.78
2022-10-23T03:29:02.172Z,64.08
2022-10-23T03:30:02.108Z,62.64
2022-10-23T03:31:01.831Z,65.15
2022-10-23T03:32:01.855Z,64.78
2022-10-23T03:33:01.811Z,62.17
2022-10-23T03:34:04.068Z,64.88
2022-10-23T03:35:01.820Z,63.06
2022-10-23T03:36:01.875Z,66.12
2022-10-23T03:37:01.758Z,58.23
2022-10-23T03:38:01.779Z,65.28
2022-10-23T03:39:01.763Z,62.73
2022-10-23T03:40:01.714Z,61.38
2022-10-23T03:41:01.715Z,61.99
2022-10-23T03:42:01.787Z,55.37
2022-10-23T03:43:01.727Z,60.35
2022-10-23T03:44:01.895Z,56.95
2022-10-23T03:45:01.740Z,63.59
2022-10-23T03:46:01.675Z,64.91
2022-10-23T03:47:01.675Z,64.76
2022-10-23T03:48:02.648Z,61.09
2022-10-23T03:49:01.639Z,60.18
2022-10-23T03:50:01.602Z,65.12
2022-10-23T03:51:01.612Z,64.53
2022-10-23T03:52:01.611Z,60.62
2022-10-23T03:53:01.616Z,59.60
2022-10-23T03:54:01.649Z,52.79
2022-10-23T03:55:01.617Z,57.96
2022-10-23T03:56:02.427Z,59.97
2022-10-23T03:57:01.546Z,62.88
2022-10-23T03:58:01.530Z,49.77
2022-10-23T03:59:01.534Z,54.49
2022-10-23T04:00:01.504Z,62.07
2022-10-23T04:01:01.558Z,59.27
2022-10-23T04:02:01.665Z,61.62
2022-10-23T04:03:01.485Z,58.90
2022-10-23T04:04:01.892Z,57.84
2022-10-23T04:05:01.485Z,60.88
2022-10-23T04:06:01.456Z,64.63
2022-10-23T04:07:01.454Z,63.65
2022-10-23T04:08:01.405Z,60.45
2022-10-23T04:09:01.458Z,62.11
2022-10-23T04:10:01.414Z,65.43
2022-10-23T04:11:01.397Z,64.18
2022-10-23T04:12:01.437Z,65.17
2022-10-23T04:13:01.356Z,58.64
2022-10-23T04:14:01.407Z,66.79
2022-10-23T04:15:01.355Z,61.63
2022-10-23T04:16:01.346Z,59.81
2022-10-23T04:17:01.329Z,66.84
2022-10-23T04:18:01.318Z,61.89
2022-10-23T04:19:01.436Z,64.64
2022-10-23T04:20:01.297Z,57.06
2022-10-23T04:21:01.381Z,66.13
2022-10-23T04:22:01.450Z,64.57
2022-10-23T04:23:01.290Z,62.39
2022-10-23T04:24:01.264Z,60.84
2022-10-23T04:25:01.249Z,55.15
2022-10-23T04:26:01.254Z,64.40
2022-10-23T04:27:01.251Z,63.31
2022-10-23T04:28:01.238Z,61.81
2022-10-23T04:29:01.202Z,62.74
2022-10-23T04:30:01.236Z,63.19
2022-10-23T04:31:01.274Z,59.92
2022-10-23T04:32:01.157Z,62.44
2022-10-23T04:33:01.162Z,61.58
2022-10-23T04:34:01.212Z,64.81
2022-10-23T04:35:01.145Z,63.03
2022-10-23T04:36:01.167Z,61.58
2022-10-23T04:37:01.227Z,64.20
2022-10-23T04:38:01.226Z,65.87
2022-10-23T04:39:01.152Z,63.81
2022-10-23T04:40:01.159Z,62.03
2022-10-23T04:41:01.134Z,61.31
2022-10-23T04:42:01.147Z,56.47
2022-10-23T04:43:01.155Z,62.42
2022-10-23T04:44:01.082Z,66.93
2022-10-23T04:45:01.117Z,61.51
2022-10-23T04:46:01.079Z,68.53
2022-10-23T04:47:01.043Z,64.42
2022-10-23T04:48:01.016Z,65.23
2022-10-23T04:49:01.055Z,63.46
2022-10-23T04:50:00.983Z,62.98
2022-10-23T04:51:33.388Z,64.53
2022-10-23T04:52:04.014Z,57.27
2022-10-23T04:53:03.939Z,64.85
2022-10-23T04:54:33.459Z,55.39
2022-10-23T04:55:03.312Z,64.93
2022-10-23T04:56:04.537Z,66.64
2022-10-23T04:57:01.529Z,65.47
2022-10-23T04:58:00.871Z,63.99
2022-10-23T04:59:00.917Z,57.68
2022-10-23T05:00:00.862Z,62.36
2022-10-23T05:01:00.995Z,61.96
2022-10-23T05:02:00.867Z,63.05
2022-10-23T05:03:00.855Z,65.83
2022-10-23T05:04:00.856Z,62.39
2022-10-23T05:05:01.136Z,58.20
2022-10-23T05:06:15.504Z,54.35
2022-10-23T05:07:00.817Z,64.28
2022-10-23T05:08:00.812Z,62.09
2022-10-23T05:09:00.828Z,66.17
2022-10-23T05:10:00.792Z,62.82
2022-10-23T05:11:00.816Z,64.04
2022-10-23T05:12:00.768Z,68.34
2022-10-23T05:13:00.802Z,60.49
2022-10-23T05:14:00.766Z,60.66
2022-10-23T05:15:00.767Z,65.73
2022-10-23T05:16:00.725Z,61.81
2022-10-23T05:17:00.784Z,58.00
2022-10-23T05:18:00.724Z,65.42
2022-10-23T05:19:00.732Z,64.44
2022-10-23T05:20:00.693Z,65.36
2022-10-23T05:21:00.740Z,59.83
2022-10-23T05:22:00.673Z,63.12
2022-10-23T05:23:00.655Z,61.63
2022-10-23T05:25:00.717Z,56.15
2022-10-23T05:26:00.668Z,64.40
2022-10-23T05:27:00.632Z,66.21
2022-10-23T05:28:00.773Z,63.60
2022-10-23T05:29:00.789Z,64.16
2022-10-23T05:30:00.581Z,65.77
2022-10-23T05:31:00.570Z,63.69
2022-10-23T05:32:00.591Z,66.41
2022-10-23T05:33:00.589Z,59.50
2022-10-23T05:34:00.598Z,63.99
2022-10-23T05:35:00.664Z,66.03
2022-10-23T05:36:00.590Z,64.78
2022-10-23T05:37:00.505Z,67.36
2022-10-23T05:38:00.531Z,64.14
2022-10-23T05:39:00.538Z,69.95
2022-10-23T05:40:00.481Z,66.68
2022-10-23T05:41:00.553Z,68.95
2022-10-23T05:42:00.608Z,70.64
2022-10-23T05:43:00.500Z,65.23
2022-10-23T05:44:00.537Z,62.55
2022-10-23T05:45:00.481Z,50.35
2022-10-23T05:46:00.438Z,61.30
2022-10-23T05:47:00.499Z,65.95
2022-10-23T05:48:10.792Z,66.15
2022-10-23T05:49:02.444Z,64.38
2022-10-23T05:50:00.381Z,65.64
2022-10-23T05:51:00.543Z,63.18
2022-10-23T05:52:00.394Z,58.25
2022-10-23T05:53:00.372Z,65.21
2022-10-23T05:54:00.330Z,62.34
2022-10-23T05:55:00.489Z,68.54
2022-10-23T05:56:00.394Z,61.67
2022-10-23T05:57:00.911Z,65.20
2022-10-23T05:58:00.321Z,65.97
2022-10-23T05:59:00.286Z,60.72
2022-10-23T06:00:00.315Z,61.33
2022-10-23T06:01:00.322Z,65.33
2022-10-23T06:02:00.522Z,61.51
2022-10-23T06:03:00.246Z,67.01
2022-10-23T06:04:00.250Z,62.07
2022-10-23T06:05:00.222Z,69.18
2022-10-23T06:06:00.220Z,67.89
2022-10-23T06:07:00.309Z,66.41
2022-10-23T06:08:00.199Z,69.57
2022-10-23T06:09:00.257Z,67.04
2022-10-23T06:10:00.198Z,63.37
2022-10-23T06:11:00.171Z,65.41
2022-10-23T06:12:00.384Z,62.96
2022-10-23T06:13:00.226Z,64.85
2022-10-23T06:14:01.317Z,59.97
2022-10-23T06:15:00.134Z,68.21
2022-10-23T06:16:00.205Z,67.62
2022-10-23T06:17:00.127Z,66.28
2022-10-23T06:18:00.139Z,68.77
2022-10-23T06:19:00.094Z,67.98
2022-10-23T06:20:00.059Z,68.67
2022-10-23T06:21:00.077Z,69.21
2022-10-23T06:22:00.047Z,68.70
2022-10-23T06:23:00.101Z,69.77
2022-10-23T06:23:59.999Z,69.02
2022-10-23T06:25:00.032Z,69.95
2022-10-23T06:25:59.991Z,66.72
2022-10-23T06:27:00.009Z,68.36
2022-10-23T06:28:00.151Z,67.30
2022-10-23T06:28:59.974Z,69.51
2022-10-23T06:29:59.972Z,69.58
2022-10-23T06:30:59.976Z,66.75
2022-10-23T06:31:59.900Z,63.64
2022-10-23T06:33:03.321Z,69.75
2022-10-23T06:34:00.937Z,69.51
2022-10-23T06:34:59.919Z,66.64
2022-10-23T06:35:59.994Z,65.42
2022-10-23T06:36:59.949Z,66.34
2022-10-23T06:37:59.931Z,68.51
2022-10-23T06:40:00.931Z,67.41
2022-10-23T06:40:59.864Z,69.33
2022-10-23T06:41:59.843Z,66.03
2022-10-23T06:42:59.819Z,68.93
2022-10-23T06:43:59.853Z,67.91
2022-10-23T06:45:03.356Z,66.60
2022-10-23T06:46:01.852Z,70.18
2022-10-23T06:46:59.820Z,70.43
2022-10-23T06:47:59.821Z,67.76
2022-10-23T06:48:59.805Z,65.06
2022-10-23T06:49:59.845Z,63.14
2022-10-23T06:51:00.766Z,65.85
2022-10-23T06:51:59.740Z,67.41
2022-10-23T06:52:59.728Z,66.68
2022-10-23T06:53:59.712Z,66.33
2022-10-23T06:54:59.730Z,66.37
2022-10-23T06:55:59.766Z,64.49
2022-10-23T06:56:59.704Z,69.00
2022-10-23T06:57:59.673Z,70.50
2022-10-23T06:58:59.721Z,66.87
2022-10-23T06:59:59.653Z,68.32
2022-10-23T07:00:59.815Z,70.06
2022-10-23T07:01:59.614Z,71.81
2022-10-23T07:02:59.585Z,68.36
2022-10-23T07:03:59.617Z,69.99
2022-10-23T07:04:59.554Z,70.30
2022-10-23T07:05:59.882Z,69.67
2022-10-23T07:06:59.542Z,69.70
2022-10-23T07:07:59.545Z,69.65
2022-10-23T07:08:59.526Z,71.23
2022-10-23T07:09:59.589Z,70.52
2022-10-23T07:10:59.550Z,71.21
2022-10-23T07:11:59.517Z,69.44
2022-10-23T07:12:59.504Z,69.02
2022-10-23T07:14:00.509Z,67.71
2022-10-23T07:14:59.527Z,69.49
2022-10-23T07:15:59.451Z,67.59
2022-10-23T07:16:59.501Z,64.56
2022-10-23T07:17:59.461Z,69.17
2022-10-23T07:18:59.574Z,68.11
2022-10-23T07:20:00.438Z,68.32
2022-10-23T07:20:59.417Z,68.60
2022-10-23T07:22:00.386Z,70.73
2022-10-23T07:22:59.427Z,69.70
2022-10-23T07:23:59.366Z,70.39
2022-10-23T07:24:59.349Z,70.34
2022-10-23T07:25:59.350Z,69.07
2022-10-23T07:26:59.377Z,71.76
2022-10-23T07:27:59.414Z,71.18
2022-10-23T07:28:59.422Z,68.93
2022-10-23T07:29:59.340Z,69.97
2022-10-23T07:30:59.397Z,68.02
2022-10-23T07:31:59.431Z,67.54
2022-10-23T07:32:59.355Z,69.38
2022-10-23T07:33:59.322Z,65.56
2022-10-23T07:34:59.295Z,69.60
2022-10-23T07:35:59.331Z,68.57
2022-10-23T07:36:59.644Z,67.60
2022-10-23T07:37:59.241Z,68.01
2022-10-23T07:38:59.259Z,67.08
2022-10-23T07:40:00.226Z,68.70
2022-10-23T07:40:59.252Z,68.22
2022-10-23T07:41:59.295Z,69.83
2022-10-23T07:42:59.323Z,69.18
2022-10-23T07:43:59.274Z,68.48
2022-10-23T07:44:59.275Z,69.25
2022-10-23T07:45:59.183Z,67.88
2022-10-23T07:46:59.215Z,68.17
2022-10-23T07:47:59.248Z,69.31
2022-10-23T07:48:59.144Z,67.52
2022-10-23T07:49:59.086Z,69.02
2022-10-23T07:50:59.120Z,69.96
2022-10-23T07:51:59.226Z,68.61
2022-10-23T07:52:59.053Z,67.33
2022-10-23T07:53:59.079Z,68.84
2022-10-23T07:54:59.064Z,68.83
2022-10-23T07:55:59.064Z,69.43
2022-10-23T07:56:59.053Z,69.89
2022-10-23T07:57:59.069Z,67.17
2022-10-23T07:58:59.065Z,68.29
2022-10-23T07:59:59.127Z,66.23
2022-10-23T08:00:59.102Z,69.40
2022-10-23T08:01:59.252Z,69.89
2022-10-23T08:02:59.000Z,69.12
2022-10-23T08:03:59.040Z,71.12
2022-10-23T08:04:59.001Z,69.54
2022-10-23T08:05:58.952Z,66.62
2022-10-23T08:06:58.930Z,66.15
2022-10-23T08:07:58.942Z,66.49
2022-10-23T08:09:00.911Z,71.16
2022-10-23T08:09:58.945Z,69.54
2022-10-23T08:10:59.001Z,68.15
2022-10-23T08:11:58.915Z,71.68
2022-10-23T08:12:59.007Z,66.60
2022-10-23T08:13:58.895Z,66.55
2022-10-23T08:14:58.879Z,68.46
2022-10-23T08:15:59.080Z,67.11
2022-10-23T08:17:41.170Z,67.64
2022-10-23T08:17:58.921Z,68.85
2022-10-23T08:18:58.830Z,69.92
2022-10-23T08:19:58.842Z,69.27
2022-10-23T08:20:58.811Z,68.83
2022-10-23T08:21:58.803Z,69.88
2022-10-23T08:22:58.796Z,69.59
2022-10-23T08:23:58.741Z,71.73
2022-10-23T08:24:58.788Z,69.52
2022-10-23T08:25:58.781Z,69.48
2022-10-23T08:27:52.216Z,70.97
2022-10-23T08:27:59.748Z,75.92
2022-10-23T08:28:58.693Z,70.28
2022-10-23T08:29:58.672Z,69.06
2022-10-23T08:30:59.400Z,70.69
2022-10-23T08:31:59.645Z,70.03
2022-10-23T08:32:58.664Z,69.50
2022-10-23T08:33:58.706Z,69.55
2022-10-23T08:34:58.637Z,69.52
2022-10-23T08:35:58.659Z,69.85
2022-10-23T08:36:58.601Z,69.32
2022-10-23T08:37:58.597Z,70.35
2022-10-23T08:38:58.655Z,67.65
2022-10-23T08:39:58.658Z,68.81
2022-10-23T08:40:58.546Z,68.23
2022-10-23T08:41:58.670Z,70.27
2022-10-23T08:42:58.570Z,69.24
2022-10-23T08:43:59.117Z,68.85
2022-10-23T08:44:58.482Z,69.44
2022-10-23T08:45:58.608Z,71.88
2022-10-23T08:46:58.458Z,71.07
2022-10-23T08:47:58.482Z,70.88
2022-10-23T08:48:58.546Z,69.16
2022-10-23T08:49:58.451Z,70.72
2022-10-23T08:50:58.445Z,70.95
2022-10-23T08:51:58.463Z,69.27
2022-10-23T08:52:58.434Z,68.24
2022-10-23T08:53:58.522Z,70.82
2022-10-23T08:54:58.441Z,72.00
2022-10-23T08:55:58.419Z,68.97
2022-10-23T08:56:58.419Z,69.24
2022-10-23T08:57:58.370Z,69.86
2022-10-23T08:58:58.321Z,70.38
2022-10-23T08:59:58.338Z,68.32
2022-10-23T09:00:58.478Z,70.48
2022-10-23T09:01:58.442Z,71.06
2022-10-23T09:02:58.303Z,66.99
2022-10-23T09:03:58.301Z,69.24
2022-10-23T09:04:58.262Z,70.28
2022-10-23T09:05:58.249Z,70.91
2022-10-23T09:06:58.367Z,70.19
2022-10-23T09:07:58.304Z,70.83
2022-10-23T09:08:58.230Z,70.43
2022-10-23T09:09:58.268Z,69.40
2022-10-23T09:10:58.186Z,70.36
2022-10-23T09:11:58.281Z,71.08
2022-10-23T09:12:58.182Z,70.05
2022-10-23T09:13:58.193Z,69.92
2022-10-23T09:14:58.149Z,68.76
2022-10-23T09:15:58.146Z,71.18
2022-10-23T09:16:58.166Z,70.48
2022-10-23T09:17:58.131Z,70.83
2022-10-23T09:18:58.126Z,71.58
2022-10-23T09:19:58.342Z,70.24
2022-10-23T09:20:58.075Z,70.39
2022-10-23T09:21:58.112Z,69.97
2022-10-23T09:22:58.073Z,71.24
2022-10-23T09:23:58.282Z,70.62
2022-10-23T09:24:58.053Z,69.23
2022-10-23T09:25:58.265Z,69.20
2022-10-23T09:26:58.088Z,70.32
2022-10-23T09:28:00.178Z,70.87
2022-10-23T09:28:58.051Z,71.24
2022-10-23T09:29:58.026Z,71.13
2022-10-23T09:30:58.091Z,69.08
2022-10-23T09:31:58.058Z,69.66
2022-10-23T09:32:57.970Z,72.33
2022-10-23T09:33:57.986Z,72.07
2022-10-23T09:34:57.978Z,69.10
2022-10-23T09:35:57.994Z,69.83
2022-10-23T09:36:58.017Z,72.35
2022-10-23T09:37:57.989Z,70.67
2022-10-23T09:38:57.925Z,72.77
2022-10-23T09:39:57.908Z,72.91
2022-10-23T09:40:57.866Z,72.56
2022-10-23T09:41:57.852Z,72.46
2022-10-23T09:42:57.826Z,71.29
2022-10-23T09:43:57.839Z,71.45
2022-10-23T09:44:58.527Z,71.70
2022-10-23T09:45:57.830Z,72.53
2022-10-23T09:46:57.783Z,70.92
2022-10-23T09:47:57.743Z,72.86
2022-10-23T09:48:59.849Z,73.46
2022-10-23T09:49:57.778Z,70.09
2022-10-23T09:50:57.759Z,71.73
2022-10-23T09:51:57.740Z,72.08
2022-10-23T09:52:57.723Z,73.01
2022-10-23T09:53:57.730Z,71.07
2022-10-23T09:54:58.449Z,71.41
2022-10-23T09:55:57.698Z,71.46
2022-10-23T09:56:57.749Z,72.18
2022-10-23T09:57:57.778Z,71.58
2022-10-23T09:58:57.647Z,71.34
2022-10-23T09:59:57.673Z,70.60
2022-10-23T10:00:57.844Z,72.65
2022-10-23T10:01:57.810Z,70.64
2022-10-23T10:02:57.746Z,70.47
2022-10-23T10:03:57.647Z,70.92
2022-10-23T10:04:57.630Z,71.61
2022-10-23T10:05:57.747Z,69.65
2022-10-23T10:06:57.635Z,69.52
2022-10-23T10:07:57.691Z,71.26
2022-10-23T10:08:57.679Z,72.15
2022-10-23T10:09:57.649Z,71.09
2022-10-23T10:10:57.538Z,71.15
2022-10-23T10:11:57.542Z,71.51
2022-10-23T10:12:59.283Z,70.31
2022-10-23T10:13:57.571Z,72.57
2022-10-23T10:14:57.879Z,69.69
2022-10-23T10:15:57.560Z,71.74
2022-10-23T10:16:57.476Z,72.65
2022-10-23T10:17:58.278Z,70.43
2022-10-23T10:18:57.472Z,70.48
2022-10-23T10:19:57.459Z,72.54
2022-10-23T10:20:57.436Z,71.69
2022-10-23T10:21:57.442Z,71.83
2022-10-23T10:22:57.380Z,73.45
2022-10-23T10:23:57.567Z,71.33
2022-10-23T10:24:57.447Z,72.50
2022-10-23T10:25:58.585Z,71.51
2022-10-23T10:26:58.620Z,72.34
2022-10-23T10:27:57.826Z,71.80
2022-10-23T10:28:57.375Z,72.05
2022-10-23T10:29:57.353Z,72.48
2022-10-23T10:30:57.461Z,73.05
2022-10-23T10:31:57.440Z,72.86
2022-10-23T10:32:57.385Z,72.82
2022-10-23T10:33:57.379Z,72.47
2022-10-23T10:34:57.244Z,74.25
2022-10-23T10:35:57.208Z,73.07
2022-10-23T10:36:57.308Z,71.26
2022-10-23T10:37:57.247Z,72.14
2022-10-23T10:38:57.228Z,70.93
2022-10-23T10:39:58.224Z,72.65
2022-10-23T10:40:57.458Z,71.72
2022-10-23T10:41:57.196Z,73.05
2022-10-23T10:42:57.159Z,72.33
2022-10-23T10:43:57.265Z,73.72
2022-10-23T10:44:57.141Z,72.78
2022-10-23T10:45:57.161Z,72.75
2022-10-23T10:46:57.126Z,71.14
2022-10-23T10:47:57.149Z,71.70
2022-10-23T10:48:57.104Z,71.15
2022-10-23T10:49:57.130Z,70.93
2022-10-23T10:50:57.064Z,72.70
2022-10-23T10:51:57.072Z,71.06
2022-10-23T10:52:57.132Z,72.31
2022-10-23T10:53:57.128Z,71.24
2022-10-23T10:54:57.051Z,71.43
2022-10-23T10:55:57.074Z,72.83
2022-10-23T10:56:57.089Z,72.01
2022-10-23T10:57:59.243Z,73.00
2022-10-23T10:58:57.089Z,70.96
2022-10-23T10:59:57.047Z,70.15
2022-10-23T11:00:57.134Z,70.16
2022-10-23T11:01:57.154Z,69.70
2022-10-23T11:02:57.066Z,70.46
2022-10-23T11:03:56.989Z,71.08
2022-10-23T11:04:56.979Z,71.48
2022-10-23T11:05:57.051Z,70.49
2022-10-23T11:06:57.066Z,72.24
2022-10-23T11:07:56.962Z,72.50
2022-10-23T11:09:03.970Z,71.72
2022-10-23T11:09:57.967Z,73.18
2022-10-23T11:10:56.925Z,70.73
2022-10-23T11:11:56.880Z,69.79
2022-10-23T11:12:56.923Z,70.94
2022-10-23T11:13:56.877Z,70.75
2022-10-23T11:14:56.906Z,71.75
2022-10-23T11:15:56.836Z,71.45
2022-10-23T11:16:56.817Z,70.72
2022-10-23T11:17:56.830Z,72.12
2022-10-23T11:18:56.924Z,72.45
2022-10-23T11:19:56.923Z,71.68
2022-10-23T11:20:56.804Z,70.41
2022-10-23T11:21:56.794Z,70.65
2022-10-23T11:22:56.779Z,72.31
2022-10-23T11:23:56.758Z,70.03
2022-10-23T11:24:58.173Z,71.21
2022-10-23T11:25:57.774Z,71.95
2022-10-23T11:26:56.907Z,72.30
2022-10-23T11:28:03.520Z,72.90
2022-10-23T11:28:56.699Z,72.99
2022-10-23T11:29:56.635Z,70.99
2022-10-23T11:30:56.654Z,71.49
2022-10-23T11:31:56.649Z,71.11
2022-10-23T11:32:56.631Z,71.67
2022-10-23T11:33:56.618Z,70.01
2022-10-23T11:34:56.691Z,70.82
2022-10-23T11:35:56.752Z,69.18
2022-10-23T11:36:56.610Z,70.27
2022-10-23T11:37:56.591Z,70.04
2022-10-23T11:38:56.647Z,71.02
2022-10-23T11:39:56.583Z,71.34
2022-10-23T11:40:56.588Z,73.32
2022-10-23T11:41:56.679Z,72.50
2022-10-23T11:42:56.738Z,71.37
2022-10-23T11:43:57.163Z,71.46
2022-10-23T11:44:56.975Z,72.04
2022-10-23T11:45:56.576Z,72.71
2022-10-23T11:46:56.514Z,72.03
2022-10-23T11:47:56.442Z,72.10
2022-10-23T11:48:56.472Z,72.85
2022-10-23T11:49:56.388Z,71.08
2022-10-23T11:50:58.176Z,71.10
2022-10-23T11:51:56.433Z,70.46
2022-10-23T11:53:12.839Z,72.57
2022-10-23T11:53:58.458Z,71.50
2022-10-23T11:57:51.405Z,0.00
2022-10-23T11:58:51.307Z,71.77
2022-10-23T11:59:51.322Z,72.41
2022-10-23T12:00:51.261Z,72.08
2022-10-23T12:01:51.507Z,72.62
2022-10-23T12:02:55.704Z,71.95
2022-10-23T12:03:53.454Z,70.17
2022-10-23T12:04:51.274Z,71.45
2022-10-23T12:05:51.394Z,71.42
2022-10-23T12:06:51.214Z,71.81
2022-10-23T12:07:51.297Z,72.46
2022-10-23T12:08:51.180Z,73.05
2022-10-23T12:09:51.253Z,71.64
2022-10-23T12:10:51.153Z,71.87
2022-10-23T12:11:51.201Z,71.40
2022-10-23T12:12:51.321Z,73.39
2022-10-23T12:13:51.193Z,72.26
2022-10-23T12:14:51.162Z,73.67
2022-10-23T12:15:51.157Z,71.19
2022-10-23T12:16:51.101Z,72.57
2022-10-23T12:17:51.089Z,71.89
2022-10-23T12:18:51.129Z,72.96
2022-10-23T12:19:51.132Z,72.25
2022-10-23T12:20:51.089Z,70.74
2022-10-23T12:21:51.130Z,72.95
2022-10-23T12:22:51.076Z,71.81
2022-10-23T12:23:51.041Z,72.95
2022-10-23T12:24:51.069Z,70.94
2022-10-23T12:25:51.066Z,70.52
2022-10-23T12:26:51.037Z,71.66
2022-10-23T12:27:50.996Z,71.74
2022-10-23T12:28:51.225Z,71.89
2022-10-23T12:29:51.010Z,74.42
2022-10-23T12:30:51.030Z,74.16
2022-10-23T12:31:50.969Z,72.37
2022-10-23T12:32:51.014Z,72.01
2022-10-23T12:33:50.949Z,72.11
2022-10-23T12:34:50.971Z,71.02
2022-10-23T12:35:50.969Z,71.18
2022-10-23T12:36:50.909Z,71.88
2022-10-23T12:37:50.879Z,71.99
2022-10-23T12:38:50.926Z,70.51
2022-10-23T12:39:50.854Z,72.50
2022-10-23T12:40:50.882Z,72.06
2022-10-23T12:41:50.883Z,73.34
2022-10-23T12:42:50.834Z,73.22
2022-10-23T12:43:50.799Z,71.48
2022-10-23T12:44:50.870Z,73.20
2022-10-23T12:45:51.098Z,73.91
2022-10-23T12:46:50.743Z,73.44
2022-10-23T12:47:50.810Z,72.45
2022-10-23T12:48:50.823Z,73.28
2022-10-23T12:49:50.855Z,73.70
2022-10-23T12:50:50.758Z,72.78
2022-10-23T12:51:50.733Z,72.53
2022-10-23T12:52:50.727Z,73.24
2022-10-23T12:53:50.750Z,74.14
2022-10-23T12:54:51.398Z,72.86
2022-10-23T12:55:50.785Z,74.11
2022-10-23T12:56:50.647Z,73.22
2022-10-23T12:58:23.150Z,73.19
2022-10-23T12:59:23.038Z,73.87
2022-10-23T12:59:50.675Z,73.91
2022-10-23T13:01:27.071Z,73.81
2022-10-23T13:02:25.530Z,72.39
2022-10-23T13:03:23.048Z,73.53
2022-10-23T13:03:51.400Z,71.58
2022-10-23T13:05:23.190Z,74.32
2022-10-23T13:06:24.206Z,71.32
2022-10-23T13:07:23.121Z,72.14
2022-10-23T13:08:24.003Z,74.19
2022-10-23T13:09:22.922Z,73.79
2022-10-23T13:09:50.598Z,70.98
2022-10-23T13:10:50.551Z,71.80